Accueil
METAR-TAF:

METAR-TAF

Aéroports :

Bolzano, Italie

latitude: 46-28N, longitude: 011-20E, altitude: 262 m

Observation

Le bulletin a été fait il y a 7 heures et 24 minutes, à 21:50 UTC
Vent 9 kt de nord/nord-est avec des rafales jusqu'à 20 kt
Température 15°C
Humidité 27%
Pression 1028 hPa
Visibilité 10 km ou plus
pas de nuages en-dessous de 1500 mètres et pas de cumulonimbus.

METAR: LIPB 222150Z 03009G20KT CAVOK 15/M04 Q1028 RMK MON INVIS

Heure: 06:14 (05:14 UTC)

Prévision

Le bulletin a été fait il y a 12 heures et 14 minutes, à 17:00 UTC
Prévision valable du 22 à 18 UTC au 23 à 18 UTC
Vent 15 kt de nord avec des rafales jusqu'à 25 kt
Visibilité 10 km ou plus
pas de nuages en-dessous de 1500 mètres et pas de cumulonimbus.

TAF: LIPB 221700Z 2218/2318 01015G25KT CAVOK

Observations et prévisions météorologiques de plus de 4000 aéroports (messages METAR et TAF).

Les stations disponibles sont représentées par des disques jaunes et rouges sur la carte.

Passer la souris dessus pour voir le nom de la station.

Cliquer dessus pour voir les observations et prévisions météorologiques.

Pour changer de carte: cliquez sur les boutons verts avec une croix noire pour zoomer, sur le bouton vert avec un tiret pour effectuer un zoom arrière, ou sur les flèches vertes pour les cartes adjacentes.


METAR-TAF: